sensor_id;sensor_type;location;lat;lon;timestamp;pressure;altitude;pressure_sealevel;temperature;humidity
45793;BME280;31495;42.740;22.908;2023-07-08T00:00:33;93414.09;;;17.97;76.41
45793;BME280;31495;42.740;22.908;2023-07-08T00:01:32;93409.13;;;18.01;76.02
45793;BME280;31495;42.740;22.908;2023-07-08T00:02:32;93430.44;;;18.15;75.67
45793;BME280;31495;42.740;22.908;2023-07-08T00:03:31;93427.34;;;18.18;75.75
45793;BME280;31495;42.740;22.908;2023-07-08T00:04:31;93395.25;;;18.00;75.13
45793;BME280;31495;42.740;22.908;2023-07-08T00:05:31;93425.06;;;18.27;74.76
45793;BME280;31495;42.740;22.908;2023-07-08T00:06:31;93425.34;;;18.30;74.98
45793;BME280;31495;42.740;22.908;2023-07-08T00:07:30;93429.53;;;18.31;74.92
45793;BME280;31495;42.740;22.908;2023-07-08T00:08:30;93417.50;;;18.30;74.71
45793;BME280;31495;42.740;22.908;2023-07-08T00:09:29;93424.00;;;18.28;74.82
45793;BME280;31495;42.740;22.908;2023-07-08T00:10:29;93410.34;;;18.21;74.54
45793;BME280;31495;42.740;22.908;2023-07-08T00:11:29;93386.88;;;18.04;74.74
45793;BME280;31495;42.740;22.908;2023-07-08T00:12:28;93395.09;;;18.12;74.56
45793;BME280;31495;42.740;22.908;2023-07-08T00:13:28;93372.69;;;17.94;74.87
45793;BME280;31495;42.740;22.908;2023-07-08T00:14:27;93423.97;;;18.23;74.93
45793;BME280;31495;42.740;22.908;2023-07-08T00:15:28;93416.63;;;18.19;75.05
45793;BME280;31495;42.740;22.908;2023-07-08T00:16:28;93370.03;;;17.89;75.01
45793;BME280;31495;42.740;22.908;2023-07-08T00:17:27;93420.53;;;18.17;75.21
45793;BME280;31495;42.740;22.908;2023-07-08T00:18:27;93396.81;;;18.02;75.57
45793;BME280;31495;42.740;22.908;2023-07-08T00:19:26;93414.97;;;18.13;75.53
45793;BME280;31495;42.740;22.908;2023-07-08T00:20:41;93417.53;;;18.03;75.84
45793;BME280;31495;42.740;22.908;2023-07-08T00:21:42;93390.91;;;17.84;76.09
45793;BME280;31495;42.740;22.908;2023-07-08T00:22:41;93353.25;;;17.58;76.23
45793;BME280;31495;42.740;22.908;2023-07-08T00:23:48;93387.72;;;17.82;76.19
45793;BME280;31495;42.740;22.908;2023-07-08T00:24:48;93397.66;;;17.80;76.82
45793;BME280;31495;42.740;22.908;2023-07-08T00:25:47;93405.38;;;17.92;76.71
45793;BME280;31495;42.740;22.908;2023-07-08T00:26:47;93378.84;;;17.83;76.27
45793;BME280;31495;42.740;22.908;2023-07-08T00:27:47;93397.94;;;17.83;76.65
45793;BME280;31495;42.740;22.908;2023-07-08T00:28:47;93390.41;;;17.87;76.51
45793;BME280;31495;42.740;22.908;2023-07-08T00:29:46;93379.28;;;17.75;76.64
45793;BME280;31495;42.740;22.908;2023-07-08T00:30:46;93387.97;;;17.80;76.75
45793;BME280;31495;42.740;22.908;2023-07-08T00:31:46;93396.63;;;17.81;76.73
45793;BME280;31495;42.740;22.908;2023-07-08T00:32:46;93357.41;;;17.59;76.70
45793;BME280;31495;42.740;22.908;2023-07-08T00:33:45;93401.19;;;17.91;76.97
45793;BME280;31495;42.740;22.908;2023-07-08T00:34:45;93401.19;;;17.91;76.83
45793;BME280;31495;42.740;22.908;2023-07-08T00:35:45;93406.19;;;17.92;76.96
45793;BME280;31495;42.740;22.908;2023-07-08T00:36:45;93406.75;;;17.99;76.44
45793;BME280;31495;42.740;22.908;2023-07-08T00:37:44;93386.00;;;17.88;76.53
45793;BME280;31495;42.740;22.908;2023-07-08T00:38:45;93400.94;;;17.92;76.90
45793;BME280;31495;42.740;22.908;2023-07-08T00:39:45;93380.13;;;17.80;76.83
45793;BME280;31495;42.740;22.908;2023-07-08T00:42:00;93398.09;;;17.94;76.74
45793;BME280;31495;42.740;22.908;2023-07-08T00:43:03;93370.41;;;17.76;76.08
45793;BME280;31495;42.740;22.908;2023-07-08T00:44:04;93388.59;;;17.88;76.53
45793;BME280;31495;42.740;22.908;2023-07-08T00:46:00;93379.94;;;17.87;76.82
45793;BME280;31495;42.740;22.908;2023-07-08T00:46:40;93393.13;;;17.97;76.32
45793;BME280;31495;42.740;22.908;2023-07-08T00:47:42;93371.91;;;17.94;76.27
45793;BME280;31495;42.740;22.908;2023-07-08T00:48:42;93385.06;;;18.04;76.04
45793;BME280;31495;42.740;22.908;2023-07-08T00:49:46;93394.03;;;18.13;75.70
45793;BME280;31495;42.740;22.908;2023-07-08T00:50:50;93383.53;;;18.08;75.57
45793;BME280;31495;42.740;22.908;2023-07-08T00:51:50;93397.25;;;18.21;75.76
45793;BME280;31495;42.740;22.908;2023-07-08T00:52:49;93371.50;;;18.07;75.33
45793;BME280;31495;42.740;22.908;2023-07-08T00:53:49;93390.91;;;18.16;75.26
45793;BME280;31495;42.740;22.908;2023-07-08T00:54:51;93393.53;;;18.16;75.35
45793;BME280;31495;42.740;22.908;2023-07-08T00:55:52;93386.47;;;18.12;75.24
45793;BME280;31495;42.740;22.908;2023-07-08T00:56:59;93400.91;;;18.19;75.29
45793;BME280;31495;42.740;22.908;2023-07-08T00:58:01;93373.72;;;17.93;76.02
45793;BME280;31495;42.740;22.908;2023-07-08T00:59:05;93386.34;;;18.02;76.05
45793;BME280;31495;42.740;22.908;2023-07-08T01:00:09;93400.13;;;18.19;75.69
45793;BME280;31495;42.740;22.908;2023-07-08T01:01:17;93399.63;;;18.22;75.60
45793;BME280;31495;42.740;22.908;2023-07-08T01:02:19;93397.25;;;18.21;75.65
45793;BME280;31495;42.740;22.908;2023-07-08T01:03:20;93404.88;;;18.22;75.41
45793;BME280;31495;42.740;22.908;2023-07-08T01:04:43;93397.25;;;18.21;75.67
45793;BME280;31495;42.740;22.908;2023-07-08T01:05:47;93388.81;;;18.13;75.63
45793;BME280;31495;42.740;22.908;2023-07-08T01:06:51;93360.28;;;17.85;75.57
45793;BME280;31495;42.740;22.908;2023-07-08T01:07:59;93380.00;;;17.92;76.42
45793;BME280;31495;42.740;22.908;2023-07-08T01:09:02;93401.03;;;18.03;76.51
45793;BME280;31495;42.740;22.908;2023-07-08T01:10:08;93400.63;;;17.89;77.00
45793;BME280;31495;42.740;22.908;2023-07-08T01:11:11;93395.19;;;17.95;76.66
45793;BME280;31495;42.740;22.908;2023-07-08T01:12:14;93371.25;;;17.81;76.71
45793;BME280;31495;42.740;22.908;2023-07-08T01:13:16;93388.50;;;17.77;77.11
45793;BME280;31495;42.740;22.908;2023-07-08T01:14:19;93395.78;;;17.75;77.44
45793;BME280;31495;42.740;22.908;2023-07-08T01:15:22;93366.63;;;17.61;77.72
45793;BME280;31495;42.740;22.908;2023-07-08T01:16:23;93382.69;;;17.75;77.65
45793;BME280;31495;42.740;22.908;2023-07-08T01:17:23;93371.69;;;17.73;77.12
45793;BME280;31495;42.740;22.908;2023-07-08T01:18:22;93375.66;;;17.76;77.48
45793;BME280;31495;42.740;22.908;2023-07-08T01:19:24;93386.19;;;17.86;77.29
45793;BME280;31495;42.740;22.908;2023-07-08T01:20:31;93381.16;;;17.79;77.90
45793;BME280;31495;42.740;22.908;2023-07-08T01:21:37;93381.94;;;17.80;77.45
45793;BME280;31495;42.740;22.908;2023-07-08T01:22:37;93385.91;;;17.82;77.51
45793;BME280;31495;42.740;22.908;2023-07-08T01:23:37;93319.56;;;17.39;77.56
45793;BME280;31495;42.740;22.908;2023-07-08T01:24:38;93382.72;;;17.80;77.62
45793;BME280;31495;42.740;22.908;2023-07-08T01:25:41;93386.41;;;17.79;77.90
45793;BME280;31495;42.740;22.908;2023-07-08T01:26:43;93363.19;;;17.61;77.86
45793;BME280;31495;42.740;22.908;2023-07-08T01:27:46;93380.88;;;17.76;78.20
45793;BME280;31495;42.740;22.908;2023-07-08T01:28:47;93383.59;;;17.86;77.77
45793;BME280;31495;42.740;22.908;2023-07-08T01:29:46;93374.88;;;17.80;77.48
45793;BME280;31495;42.740;22.908;2023-07-08T01:30:47;93359.88;;;17.71;77.62
45793;BME280;31495;42.740;22.908;2023-07-08T01:31:47;93370.72;;;17.79;77.74
45793;BME280;31495;42.740;22.908;2023-07-08T01:32:55;93366.75;;;17.77;77.56
45793;BME280;31495;42.740;22.908;2023-07-08T01:33:57;93385.00;;;17.94;77.30
45793;BME280;31495;42.740;22.908;2023-07-08T01:34:59;93372.69;;;17.94;77.10
45793;BME280;31495;42.740;22.908;2023-07-08T01:36:00;93388.47;;;18.05;76.59
45793;BME280;31495;42.740;22.908;2023-07-08T01:37:01;93338.75;;;17.77;76.89
45793;BME280;31495;42.740;22.908;2023-07-08T01:38:05;93372.97;;;17.98;76.56
45793;BME280;31495;42.740;22.908;2023-07-08T01:39:13;93382.50;;;18.09;76.23
45793;BME280;31495;42.740;22.908;2023-07-08T01:41:16;93375.72;;;18.13;76.20
45793;BME280;31495;42.740;22.908;2023-07-08T01:42:16;93377.94;;;18.27;75.76
45793;BME280;31495;42.740;22.908;2023-07-08T01:43:15;93387.31;;;18.23;75.44
45793;BME280;31495;42.740;22.908;2023-07-08T01:44:26;93387.84;;;18.25;75.88
45793;BME280;31495;42.740;22.908;2023-07-08T01:45:28;93365.16;;;18.03;75.85
45793;BME280;31495;42.740;22.908;2023-07-08T01:46:29;93387.50;;;18.11;75.91
45793;BME280;31495;42.740;22.908;2023-07-08T01:47:31;93385.13;;;18.09;75.84
45793;BME280;31495;42.740;22.908;2023-07-08T01:48:36;93357.47;;;17.91;75.89
45793;BME280;31495;42.740;22.908;2023-07-08T01:49:39;93385.13;;;18.09;75.99
45793;BME280;31495;42.740;22.908;2023-07-08T01:51:03;93333.47;;;17.72;76.18
45793;BME280;31495;42.740;22.908;2023-07-08T01:52:04;93347.50;;;17.88;76.11
45793;BME280;31495;42.740;22.908;2023-07-08T01:53:10;93367.25;;;18.01;75.60
45793;BME280;31495;42.740;22.908;2023-07-08T01:54:10;93361.47;;;17.99;76.05
45793;BME280;31495;42.740;22.908;2023-07-08T01:55:09;93383.00;;;18.06;75.96
45793;BME280;31495;42.740;22.908;2023-07-08T01:56:11;93380.88;;;18.03;76.41
45793;BME280;31495;42.740;22.908;2023-07-08T01:57:11;93368.72;;;17.92;76.73
45793;BME280;31495;42.740;22.908;2023-07-08T01:58:11;93377.44;;;17.97;76.55
45793;BME280;31495;42.740;22.908;2023-07-08T01:59:11;93378.78;;;18.05;76.45
45793;BME280;31495;42.740;22.908;2023-07-08T02:00:11;93345.28;;;17.75;76.39
45793;BME280;31495;42.740;22.908;2023-07-08T02:01:11;93392.34;;;17.97;76.27
45793;BME280;31495;42.740;22.908;2023-07-08T02:02:10;93373.91;;;17.87;76.74
45793;BME280;31495;42.740;22.908;2023-07-08T02:03:09;93383.41;;;17.93;76.97
45793;BME280;31495;42.740;22.908;2023-07-08T02:04:09;93359.63;;;17.72;77.16
45793;BME280;31495;42.740;22.908;2023-07-08T02:05:08;93357.34;;;17.76;76.83
45793;BME280;31495;42.740;22.908;2023-07-08T02:06:08;93357.00;;;17.72;76.83
45793;BME280;31495;42.740;22.908;2023-07-08T02:07:07;93357.09;;;17.77;76.62
45793;BME280;31495;42.740;22.908;2023-07-08T02:08:07;93376.28;;;17.88;76.72
45793;BME280;31495;42.740;22.908;2023-07-08T02:09:06;93387.09;;;17.97;76.48
45793;BME280;31495;42.740;22.908;2023-07-08T02:10:06;93376.88;;;17.95;76.67
45793;BME280;31495;42.740;22.908;2023-07-08T02:11:06;93385.03;;;17.99;76.83
45793;BME280;31495;42.740;22.908;2023-07-08T02:12:05;93387.91;;;17.97;76.92
45793;BME280;31495;42.740;22.908;2023-07-08T02:13:05;93383.69;;;17.96;76.72
45793;BME280;31495;42.740;22.908;2023-07-08T02:14:05;93368.97;;;17.90;76.58
45793;BME280;31495;42.740;22.908;2023-07-08T02:15:08;93359.44;;;17.79;76.27
45793;BME280;31495;42.740;22.908;2023-07-08T02:16:08;93388.97;;;18.02;76.26
45793;BME280;31495;42.740;22.908;2023-07-08T02:17:07;93370.72;;;17.79;76.13
45793;BME280;31495;42.740;22.908;2023-07-08T02:18:07;93388.91;;;17.91;76.41
45793;BME280;31495;42.740;22.908;2023-07-08T02:19:06;93393.59;;;17.89;76.59
45793;BME280;31495;42.740;22.908;2023-07-08T02:20:06;93374.25;;;17.68;76.38
45793;BME280;31495;42.740;22.908;2023-07-08T02:21:07;93396.91;;;17.85;76.76
45793;BME280;31495;42.740;22.908;2023-07-08T02:22:08;93362.44;;;17.66;76.45
45793;BME280;31495;42.740;22.908;2023-07-08T02:23:07;93369.31;;;17.72;76.67
45793;BME280;31495;42.740;22.908;2023-07-08T02:24:07;93395.31;;;17.83;76.40
45793;BME280;31495;42.740;22.908;2023-07-08T02:25:07;93394.78;;;17.81;76.31
45793;BME280;31495;42.740;22.908;2023-07-08T02:26:08;93391.16;;;17.82;76.26
45793;BME280;31495;42.740;22.908;2023-07-08T02:27:07;93391.16;;;17.82;76.27
45793;BME280;31495;42.740;22.908;2023-07-08T02:28:07;93391.66;;;17.79;76.57
45793;BME280;31495;42.740;22.908;2023-07-08T02:29:06;93397.41;;;17.81;76.55
45793;BME280;31495;42.740;22.908;2023-07-08T02:30:06;93357.09;;;17.50;76.41
45793;BME280;31495;42.740;22.908;2023-07-08T02:31:06;93378.16;;;17.66;76.62
45793;BME280;31495;42.740;22.908;2023-07-08T02:32:06;93396.03;;;17.74;76.39
45793;BME280;31495;42.740;22.908;2023-07-08T02:33:05;93397.13;;;17.78;76.69
45793;BME280;31495;42.740;22.908;2023-07-08T02:34:06;93361.03;;;17.53;76.79
45793;BME280;31495;42.740;22.908;2023-07-08T02:35:07;93404.13;;;17.72;76.60
45793;BME280;31495;42.740;22.908;2023-07-08T02:36:06;93325.69;;;17.23;76.70
45793;BME280;31495;42.740;22.908;2023-07-08T02:37:06;93391.97;;;17.61;76.67
45793;BME280;31495;42.740;22.908;2023-07-08T02:38:06;93397.53;;;17.64;76.88
45793;BME280;31495;42.740;22.908;2023-07-08T02:39:05;93389.88;;;17.58;77.00
45793;BME280;31495;42.740;22.908;2023-07-08T02:40:05;93387.53;;;17.61;76.81
45793;BME280;31495;42.740;22.908;2023-07-08T02:41:05;93378.09;;;17.60;76.92
45793;BME280;31495;42.740;22.908;2023-07-08T02:42:05;93377.75;;;17.52;76.77
45793;BME280;31495;42.740;22.908;2023-07-08T02:43:04;93388.63;;;17.66;76.76
45793;BME280;31495;42.740;22.908;2023-07-08T02:44:04;93388.38;;;17.67;76.90
45793;BME280;31495;42.740;22.908;2023-07-08T02:45:04;93363.34;;;17.49;76.93
45793;BME280;31495;42.740;22.908;2023-07-08T02:46:04;93389.19;;;17.68;76.93
45793;BME280;31495;42.740;22.908;2023-07-08T02:47:03;93393.56;;;17.62;77.20
45793;BME280;31495;42.740;22.908;2023-07-08T02:48:03;93371.13;;;17.44;77.24
45793;BME280;31495;42.740;22.908;2023-07-08T02:49:03;93393.28;;;17.58;77.25
45793;BME280;31495;42.740;22.908;2023-07-08T02:50:04;93389.63;;;17.59;77.39
45793;BME280;31495;42.740;22.908;2023-07-08T02:51:05;93390.16;;;17.61;77.05
45793;BME280;31495;42.740;22.908;2023-07-08T02:52:04;93384.41;;;17.59;77.05
45793;BME280;31495;42.740;22.908;2023-07-08T02:53:04;93372.81;;;17.55;76.67
45793;BME280;31495;42.740;22.908;2023-07-08T02:54:04;93363.16;;;17.56;76.54
45793;BME280;31495;42.740;22.908;2023-07-08T02:55:04;93389.97;;;17.68;76.67
45793;BME280;31495;42.740;22.908;2023-07-08T02:56:03;93386.44;;;17.57;76.68
45793;BME280;31495;42.740;22.908;2023-07-08T02:57:03;93344.88;;;17.34;76.87
45793;BME280;31495;42.740;22.908;2023-07-08T02:58:03;93392.28;;;17.64;76.69
45793;BME280;31495;42.740;22.908;2023-07-08T02:59:02;93364.06;;;17.44;76.30
45793;BME280;31495;42.740;22.908;2023-07-08T03:00:02;93397.28;;;17.66;76.39
45793;BME280;31495;42.740;22.908;2023-07-08T03:01:04;93382.81;;;17.58;76.54
45793;BME280;31495;42.740;22.908;2023-07-08T03:02:05;93390.16;;;17.61;76.70
45793;BME280;31495;42.740;22.908;2023-07-08T03:03:05;93397.47;;;17.59;77.29
45793;BME280;31495;42.740;22.908;2023-07-08T03:04:04;93400.88;;;17.60;77.41
45793;BME280;31495;42.740;22.908;2023-07-08T03:05:06;93407.28;;;17.47;77.29
45793;BME280;31495;42.740;22.908;2023-07-08T03:06:05;93389.34;;;17.34;77.43
45793;BME280;31495;42.740;22.908;2023-07-08T03:07:06;93370.75;;;17.30;77.29
45793;BME280;31495;42.740;22.908;2023-07-08T03:08:10;93371.53;;;17.31;77.02
45793;BME280;31495;42.740;22.908;2023-07-08T03:09:11;93386.72;;;17.34;77.46
45793;BME280;31495;42.740;22.908;2023-07-08T03:10:14;93389.94;;;17.41;77.43
45793;BME280;31495;42.740;22.908;2023-07-08T03:11:13;93369.69;;;17.31;77.18
45793;BME280;31495;42.740;22.908;2023-07-08T03:12:12;93379.22;;;17.42;76.86
45793;BME280;31495;42.740;22.908;2023-07-08T03:13:12;93392.13;;;17.49;77.14
45793;BME280;31495;42.740;22.908;2023-07-08T03:14:11;93389.53;;;17.54;77.06
45793;BME280;31495;42.740;22.908;2023-07-08T03:15:11;93384.88;;;17.56;77.12
45793;BME280;31495;42.740;22.908;2023-07-08T03:16:10;93387.19;;;17.53;77.26
45793;BME280;31495;42.740;22.908;2023-07-08T03:17:12;93386.19;;;17.59;77.37
45793;BME280;31495;42.740;22.908;2023-07-08T03:18:12;93390.66;;;17.58;76.96
45793;BME280;31495;42.740;22.908;2023-07-08T03:19:12;93383.63;;;17.64;76.97
45793;BME280;31495;42.740;22.908;2023-07-08T03:20:14;93372.59;;;17.57;77.21
45793;BME280;31495;42.740;22.908;2023-07-08T03:21:15;93374.09;;;17.53;77.08
45793;BME280;31495;42.740;22.908;2023-07-08T03:22:15;93372.88;;;17.60;76.65
45793;BME280;31495;42.740;22.908;2023-07-08T03:23:15;93376.03;;;17.62;77.02
45793;BME280;31495;42.740;22.908;2023-07-08T03:24:15;93383.44;;;17.71;76.52
45793;BME280;31495;42.740;22.908;2023-07-08T03:25:17;93377.47;;;17.75;76.27
45793;BME280;31495;42.740;22.908;2023-07-08T03:26:21;93355.63;;;17.59;76.61
45793;BME280;31495;42.740;22.908;2023-07-08T03:27:21;93379.50;;;17.68;76.70
45793;BME280;31495;42.740;22.908;2023-07-08T03:28:20;93352.44;;;17.57;76.19
45793;BME280;31495;42.740;22.908;2023-07-08T03:29:20;93375.03;;;17.69;76.74
45793;BME280;31495;42.740;22.908;2023-07-08T03:30:20;93377.31;;;17.60;76.87
45793;BME280;31495;42.740;22.908;2023-07-08T03:31:20;93356.06;;;17.51;76.73
45793;BME280;31495;42.740;22.908;2023-07-08T03:32:19;93363.19;;;17.61;76.50
45793;BME280;31495;42.740;22.908;2023-07-08T03:33:19;93333.25;;;17.47;76.89
45793;BME280;31495;42.740;22.908;2023-07-08T03:34:19;93373.53;;;17.73;76.47
45793;BME280;31495;42.740;22.908;2023-07-08T03:35:18;93370.59;;;17.69;76.67
45793;BME280;31495;42.740;22.908;2023-07-08T03:36:18;93331.66;;;17.45;76.84
45793;BME280;31495;42.740;22.908;2023-07-08T03:37:21;93364.34;;;17.70;76.64
45793;BME280;31495;42.740;22.908;2023-07-08T03:38:21;93358.34;;;17.75;76.31
45793;BME280;31495;42.740;22.908;2023-07-08T03:39:22;93353.41;;;17.78;76.32
45793;BME280;31495;42.740;22.908;2023-07-08T03:40:22;93350.22;;;17.71;76.21
45793;BME280;31495;42.740;22.908;2023-07-08T03:41:22;93353.88;;;17.70;76.69
45793;BME280;31495;42.740;22.908;2023-07-08T03:42:22;93361.19;;;17.68;76.77
45793;BME280;31495;42.740;22.908;2023-07-08T03:43:21;93331.94;;;17.49;76.44
45793;BME280;31495;42.740;22.908;2023-07-08T03:44:20;93306.41;;;17.29;76.92
45793;BME280;31495;42.740;22.908;2023-07-08T03:45:20;93330.94;;;17.50;76.93
45793;BME280;31495;42.740;22.908;2023-07-08T03:46:20;93361.72;;;17.70;76.83
45793;BME280;31495;42.740;22.908;2023-07-08T03:47:20;93355.94;;;17.68;76.35
45793;BME280;31495;42.740;22.908;2023-07-08T03:48:20;93336.97;;;17.56;76.09
45793;BME280;31495;42.740;22.908;2023-07-08T03:49:21;93358.97;;;17.55;76.51
45793;BME280;31495;42.740;22.908;2023-07-08T03:50:26;93327.81;;;17.26;77.51
45793;BME280;31495;42.740;22.908;2023-07-08T03:51:29;93337.03;;;17.34;76.99
45793;BME280;31495;42.740;22.908;2023-07-08T03:52:30;93375.44;;;17.55;77.08
45793;BME280;31495;42.740;22.908;2023-07-08T03:53:30;93378.09;;;17.60;76.41
45793;BME280;31495;42.740;22.908;2023-07-08T03:54:29;93355.28;;;17.56;76.62
45793;BME280;31495;42.740;22.908;2023-07-08T03:55:29;93339.25;;;17.47;76.36
45793;BME280;31495;42.740;22.908;2023-07-08T03:56:28;93355.84;;;17.58;75.76
45793;BME280;31495;42.740;22.908;2023-07-08T03:57:27;93376.69;;;17.75;76.02
45793;BME280;31495;42.740;22.908;2023-07-08T03:58:27;93364.00;;;17.61;75.61
45793;BME280;31495;42.740;22.908;2023-07-08T03:59:26;93378.50;;;17.74;76.05
45793;BME280;31495;42.740;22.908;2023-07-08T04:00:26;93364.72;;;17.57;75.57
45793;BME280;31495;42.740;22.908;2023-07-08T04:01:26;93357.09;;;17.50;76.18
45793;BME280;31495;42.740;22.908;2023-07-08T04:02:26;93362.94;;;17.62;75.40
45793;BME280;31495;42.740;22.908;2023-07-08T04:03:25;93386.03;;;17.71;75.42
45793;BME280;31495;42.740;22.908;2023-07-08T04:04:24;93378.97;;;17.66;75.11
45793;BME280;31495;42.740;22.908;2023-07-08T04:05:24;93353.97;;;17.53;75.11
45793;BME280;31495;42.740;22.908;2023-07-08T04:06:24;93390.50;;;17.70;75.57
45793;BME280;31495;42.740;22.908;2023-07-08T04:07:24;93372.03;;;17.55;75.86
45793;BME280;31495;42.740;22.908;2023-07-08T04:08:24;93375.72;;;17.59;76.11
45793;BME280;31495;42.740;22.908;2023-07-08T04:09:23;93386.38;;;17.74;75.80
45793;BME280;31495;42.740;22.908;2023-07-08T04:10:23;93373.78;;;17.71;75.25
45793;BME280;31495;42.740;22.908;2023-07-08T04:11:23;93371.88;;;17.67;75.13
45793;BME280;31495;42.740;22.908;2023-07-08T04:12:23;93375.81;;;17.69;74.90
45793;BME280;31495;42.740;22.908;2023-07-08T04:13:22;93373.72;;;17.66;75.25
45793;BME280;31495;42.740;22.908;2023-07-08T04:14:22;93385.81;;;17.72;75.46
45793;BME280;31495;42.740;22.908;2023-07-08T04:15:21;93376.34;;;17.66;75.23
45793;BME280;31495;42.740;22.908;2023-07-08T04:16:55;93388.75;;;17.76;75.48
45793;BME280;31495;42.740;22.908;2023-07-08T04:17:56;93385.88;;;17.77;75.42
45793;BME280;31495;42.740;22.908;2023-07-08T04:18:56;93385.09;;;17.82;74.97
45793;BME280;31495;42.740;22.908;2023-07-08T04:19:56;93384.03;;;17.78;74.61
45793;BME280;31495;42.740;22.908;2023-07-08T04:20:56;93384.03;;;17.78;74.63
45793;BME280;31495;42.740;22.908;2023-07-08T04:21:55;93388.22;;;17.79;74.74
45793;BME280;31495;42.740;22.908;2023-07-08T04:22:55;93377.69;;;17.74;75.24
45793;BME280;31495;42.740;22.908;2023-07-08T04:23:54;93386.97;;;17.87;75.57
45793;BME280;31495;42.740;22.908;2023-07-08T04:24:53;93375.72;;;17.86;75.29
45793;BME280;31495;42.740;22.908;2023-07-08T04:25:55;93390.53;;;17.97;75.16
45793;BME280;31495;42.740;22.908;2023-07-08T04:26:56;93382.72;;;18.03;74.55
45793;BME280;31495;42.740;22.908;2023-07-08T04:27:56;93394.84;;;18.14;74.80
45793;BME280;31495;42.740;22.908;2023-07-08T04:28:55;93392.75;;;18.16;74.71
45793;BME280;31495;42.740;22.908;2023-07-08T04:29:55;93400.66;;;18.21;74.94
45793;BME280;31495;42.740;22.908;2023-07-08T04:30:54;93392.81;;;18.26;74.49
45793;BME280;31495;42.740;22.908;2023-07-08T04:31:54;93383.47;;;18.35;74.17
45793;BME280;31495;42.740;22.908;2023-07-08T04:32:53;93381.38;;;18.37;74.14
45793;BME280;31495;42.740;22.908;2023-07-08T04:33:55;93390.91;;;18.49;73.65
45793;BME280;31495;42.740;22.908;2023-07-08T04:34:55;93384.66;;;18.55;72.88
45793;BME280;31495;42.740;22.908;2023-07-08T04:35:54;93395.44;;;18.64;73.05
45793;BME280;31495;42.740;22.908;2023-07-08T04:36:53;93392.06;;;18.68;72.96
45793;BME280;31495;42.740;22.908;2023-07-08T04:37:53;93394.97;;;18.72;72.60
45793;BME280;31495;42.740;22.908;2023-07-08T04:38:53;93374.25;;;18.70;72.20
45793;BME280;31495;42.740;22.908;2023-07-08T04:39:53;93392.78;;;18.96;71.68
45793;BME280;31495;42.740;22.908;2023-07-08T04:40:53;93405.13;;;19.01;72.10
45793;BME280;31495;42.740;22.908;2023-07-08T04:41:53;93406.44;;;19.03;71.46
45793;BME280;31495;42.740;22.908;2023-07-08T04:42:52;93397.28;;;19.06;71.64
45793;BME280;31495;42.740;22.908;2023-07-08T04:43:53;93368.63;;;18.89;72.27
45793;BME280;31495;42.740;22.908;2023-07-08T04:44:52;93390.44;;;19.05;70.42
45793;BME280;31495;42.740;22.908;2023-07-08T04:45:53;93397.56;;;19.09;69.79
45793;BME280;31495;42.740;22.908;2023-07-08T04:46:55;93396.25;;;19.12;69.50
45793;BME280;31495;42.740;22.908;2023-07-08T04:47:55;93364.69;;;18.91;69.26
45793;BME280;31495;42.740;22.908;2023-07-08T04:48:55;93392.56;;;19.13;68.81
45793;BME280;31495;42.740;22.908;2023-07-08T04:49:54;93393.31;;;19.03;68.80
45793;BME280;31495;42.740;22.908;2023-07-08T04:50:54;93401.66;;;18.95;68.97
45793;BME280;31495;42.740;22.908;2023-07-08T04:51:53;93382.53;;;18.95;69.66
45793;BME280;31495;42.740;22.908;2023-07-08T04:52:53;93394.19;;;19.19;70.50
45793;BME280;31495;42.740;22.908;2023-07-08T04:53:52;93384.47;;;19.20;70.37
45793;BME280;31495;42.740;22.908;2023-07-08T04:54:52;93408.66;;;19.32;70.05
45793;BME280;31495;42.740;22.908;2023-07-08T04:55:54;93378.44;;;19.19;69.92
45793;BME280;31495;42.740;22.908;2023-07-08T04:56:55;93387.66;;;19.27;69.88
45793;BME280;31495;42.740;22.908;2023-07-08T04:57:54;93400.81;;;19.37;69.82
45793;BME280;31495;42.740;22.908;2023-07-08T04:58:54;93399.19;;;19.31;68.40
45793;BME280;31495;42.740;22.908;2023-07-08T04:59:54;93393.69;;;19.27;68.15
45793;BME280;31495;42.740;22.908;2023-07-08T05:00:53;93381.34;;;19.23;68.42
45793;BME280;31495;42.740;22.908;2023-07-08T05:01:52;93393.72;;;19.38;69.01
45793;BME280;31495;42.740;22.908;2023-07-08T05:02:52;93408.44;;;19.49;68.30
45793;BME280;31495;42.740;22.908;2023-07-08T05:03:53;93412.41;;;19.46;67.05
45793;BME280;31495;42.740;22.908;2023-07-08T05:04:52;93389.53;;;19.37;67.34
45793;BME280;31495;42.740;22.908;2023-07-08T05:05:52;93386.28;;;19.09;68.22
45793;BME280;31495;42.740;22.908;2023-07-08T05:06:51;93385.25;;;19.15;68.23
45793;BME280;31495;42.740;22.908;2023-07-08T05:07:51;93374.94;;;18.98;69.00
45793;BME280;31495;42.740;22.908;2023-07-08T05:08:50;93411.28;;;19.27;70.00
45793;BME280;31495;42.740;22.908;2023-07-08T05:09:50;93404.94;;;19.23;69.65
45793;BME280;31495;42.740;22.908;2023-07-08T05:10:49;93405.47;;;19.25;69.58
45793;BME280;31495;42.740;22.908;2023-07-08T05:11:49;93405.72;;;19.18;69.01
45793;BME280;31495;42.740;22.908;2023-07-08T05:12:48;93384.16;;;19.01;68.50
45793;BME280;31495;42.740;22.908;2023-07-08T05:13:48;93349.69;;;18.82;69.20
45793;BME280;31495;42.740;22.908;2023-07-08T05:14:47;93407.03;;;19.16;68.70
45793;BME280;31495;42.740;22.908;2023-07-08T05:15:48;93409.66;;;19.21;68.73
45793;BME280;31495;42.740;22.908;2023-07-08T05:16:47;93407.81;;;19.16;68.47
45793;BME280;31495;42.740;22.908;2023-07-08T05:17:47;93424.84;;;19.14;68.84
45793;BME280;31495;42.740;22.908;2023-07-08T05:18:47;93390.94;;;19.02;68.71
45793;BME280;31495;42.740;22.908;2023-07-08T05:19:46;93398.28;;;19.00;68.36
45793;BME280;31495;42.740;22.908;2023-07-08T05:20:51;93402.53;;;19.06;69.28